createdAt,value
2023-02-17T00:01:14.421Z,102837.80
2023-02-17T00:03:42.180Z,102840.59
2023-02-17T00:06:11.767Z,102835.36
2023-02-17T00:08:38.732Z,102832.14
2023-02-17T00:11:06.739Z,102834.85
2023-02-17T00:13:34.054Z,102833.85
2023-02-17T00:16:08.490Z,102830.53
2023-02-17T00:18:36.129Z,102831.95
2023-02-17T00:21:16.009Z,102831.06
2023-02-17T00:23:44.053Z,102832.70
2023-02-17T00:26:11.247Z,102830.34
2023-02-17T00:28:38.548Z,102832.00
2023-02-17T00:31:07.587Z,102833.43
2023-02-17T00:33:35.135Z,102830.02
2023-02-17T00:36:07.339Z,102831.74
2023-02-17T00:38:34.425Z,102833.81
2023-02-17T00:41:01.574Z,102832.19
2023-02-17T00:43:31.182Z,102833.58
2023-02-17T00:45:58.226Z,102835.36
2023-02-17T00:48:25.248Z,102835.69
2023-02-17T00:50:52.523Z,102832.09
2023-02-17T00:53:19.574Z,102834.44
2023-02-17T00:55:46.621Z,102834.80
2023-02-17T00:58:13.570Z,102835.23
2023-02-17T01:00:40.512Z,102836.11
2023-02-17T01:03:07.986Z,102831.70
2023-02-17T01:05:40.143Z,102832.56
2023-02-17T01:08:07.078Z,102828.59
2023-02-17T01:10:37.925Z,102825.02
2023-02-17T01:13:05.371Z,102826.54
2023-02-17T01:15:33.657Z,102825.98
2023-02-17T01:18:00.697Z,102820.16
2023-02-17T01:20:27.744Z,102822.77
2023-02-17T01:22:54.689Z,102818.11
2023-02-17T01:25:21.633Z,102811.13
2023-02-17T01:27:48.784Z,102813.33
2023-02-17T01:30:15.777Z,102808.00
2023-02-17T01:32:42.882Z,102810.91
2023-02-17T01:35:09.834Z,102808.77
2023-02-17T01:37:36.867Z,102806.98
2023-02-17T01:40:04.631Z,102807.29
2023-02-17T01:42:31.880Z,102809.23
2023-02-17T01:45:17.673Z,102809.42
2023-02-17T01:48:25.681Z,102809.30
2023-02-17T01:50:53.136Z,102811.35
2023-02-17T01:53:29.699Z,102813.29
2023-02-17T01:55:57.503Z,102812.49
2023-02-17T01:58:26.836Z,102804.15
2023-02-17T02:00:57.099Z,102802.89
2023-02-17T02:03:24.548Z,102799.21
2023-02-17T02:05:51.591Z,102797.52
2023-02-17T02:08:18.800Z,102794.75
2023-02-17T02:10:46.095Z,102794.40
2023-02-17T02:13:13.245Z,102796.15
2023-02-17T02:15:52.583Z,102796.26
2023-02-17T02:18:25.773Z,102797.27
2023-02-17T02:21:16.683Z,102796.98
2023-02-17T02:23:53.211Z,102793.39
2023-02-17T02:26:54.093Z,102791.55
2023-02-17T02:29:38.138Z,102793.05
2023-02-17T02:32:17.492Z,102794.42
2023-02-17T02:35:20.771Z,102787.89
2023-02-17T02:37:52.634Z,102788.66
2023-02-17T02:40:24.570Z,102787.56
2023-02-17T02:42:51.952Z,102790.41
2023-02-17T02:45:19.716Z,102788.94
2023-02-17T02:47:52.511Z,102792.92
2023-02-17T02:51:01.733Z,102784.65
2023-02-17T02:53:59.437Z,102788.81
2023-02-17T02:56:36.910Z,102785.33
2023-02-17T02:59:29.741Z,102783.52
2023-02-17T03:02:00.172Z,102783.00
2023-02-17T03:04:36.670Z,102781.72
2023-02-17T03:07:21.436Z,102778.14
2023-02-17T03:09:54.032Z,102786.66
2023-02-17T03:12:22.205Z,102784.89
2023-02-17T03:14:53.312Z,102785.14
2023-02-17T03:17:20.347Z,102784.86
2023-02-17T03:19:50.368Z,102786.90
2023-02-17T03:22:29.036Z,102785.33
2023-02-17T03:24:56.022Z,102783.38
2023-02-17T03:27:23.028Z,102783.76
2023-02-17T03:29:49.868Z,102789.61
2023-02-17T03:32:18.068Z,102787.23
2023-02-17T03:34:45.056Z,102784.04
2023-02-17T03:37:12.445Z,102785.21
2023-02-17T03:39:39.803Z,102787.33
2023-02-17T03:42:06.834Z,102786.92
2023-02-17T03:44:33.749Z,102785.10
2023-02-17T03:47:00.797Z,102785.78
2023-02-17T03:49:27.745Z,102789.52
2023-02-17T03:51:54.936Z,102788.95
2023-02-17T03:54:21.851Z,102784.45
2023-02-17T03:56:48.722Z,102785.98
2023-02-17T03:59:15.665Z,102784.47
2023-02-17T04:01:42.686Z,102784.27
2023-02-17T04:04:09.853Z,102782.20
2023-02-17T04:06:37.015Z,102779.36
2023-02-17T04:09:04.448Z,102778.89
2023-02-17T04:11:31.970Z,102779.63
2023-02-17T04:13:58.905Z,102778.36
2023-02-17T04:16:25.768Z,102779.66
2023-02-17T04:18:52.596Z,102779.82
2023-02-17T04:21:19.627Z,102783.06
2023-02-17T04:23:46.547Z,102782.59
2023-02-17T04:26:13.570Z,102782.34
2023-02-17T04:28:42.299Z,102782.90
2023-02-17T04:31:10.514Z,102782.12
2023-02-17T04:33:38.157Z,102782.98
2023-02-17T04:36:05.916Z,102786.75
2023-02-17T04:38:34.269Z,102790.73
2023-02-17T04:41:01.339Z,102795.38
2023-02-17T04:43:28.632Z,102793.92
2023-02-17T04:45:55.711Z,102790.15
2023-02-17T04:48:23.059Z,102793.34
2023-02-17T04:50:49.961Z,102794.35
2023-02-17T04:53:16.989Z,102794.27
2023-02-17T04:55:44.174Z,102794.75
2023-02-17T04:58:11.191Z,102795.52
2023-02-17T05:00:38.383Z,102797.02
2023-02-17T05:03:05.418Z,102794.55
2023-02-17T05:05:32.364Z,102790.44
2023-02-17T05:07:59.218Z,102791.57
2023-02-17T05:10:26.326Z,102794.93
2023-02-17T05:12:53.342Z,102790.92
2023-02-17T05:15:20.944Z,102789.47
2023-02-17T05:17:47.882Z,102792.35
2023-02-17T05:20:14.868Z,102790.29
2023-02-17T05:22:41.848Z,102793.81
2023-02-17T05:25:08.935Z,102797.38
2023-02-17T05:27:35.916Z,102798.55
2023-02-17T05:30:03.097Z,102797.85
2023-02-17T05:32:30.145Z,102797.54
2023-02-17T05:34:57.044Z,102801.55
2023-02-17T05:37:23.954Z,102807.27
2023-02-17T05:39:50.916Z,102806.33
2023-02-17T05:42:17.896Z,102810.27
2023-02-17T05:44:45.300Z,102815.45
2023-02-17T05:47:12.170Z,102813.13
2023-02-17T05:49:39.095Z,102815.52
2023-02-17T05:52:06.128Z,102816.73
2023-02-17T05:54:33.171Z,102817.85
2023-02-17T05:57:00.099Z,102817.79
2023-02-17T05:59:27.152Z,102818.42
2023-02-17T06:01:54.849Z,102813.08
2023-02-17T06:04:21.983Z,102815.63
2023-02-17T06:06:48.918Z,102810.79
2023-02-17T06:09:15.977Z,102813.93
2023-02-17T06:11:42.914Z,102815.21
2023-02-17T06:14:09.852Z,102818.13
2023-02-17T06:16:36.899Z,102815.59
2023-02-17T06:19:05.489Z,102819.70
2023-02-17T06:21:32.651Z,102823.08
2023-02-17T06:23:59.594Z,102827.45
2023-02-17T06:26:26.747Z,102830.69
2023-02-17T06:28:54.081Z,102833.19
2023-02-17T06:31:21.043Z,102837.81
2023-02-17T06:33:48.594Z,102843.04
2023-02-17T06:36:15.527Z,102842.38
2023-02-17T06:38:42.373Z,102843.58
2023-02-17T06:41:09.314Z,102844.58
2023-02-17T06:43:36.264Z,102847.14
2023-02-17T06:46:03.349Z,102852.20
2023-02-17T06:48:33.262Z,102858.06
2023-02-17T06:51:01.083Z,102859.17
2023-02-17T06:53:28.138Z,102860.80
2023-02-17T06:55:55.180Z,102864.39
2023-02-17T06:58:22.397Z,102868.44
2023-02-17T07:00:49.480Z,102871.27
2023-02-17T07:03:16.435Z,102874.45
2023-02-17T07:05:43.682Z,102876.20
2023-02-17T07:08:10.624Z,102874.34
2023-02-17T07:10:38.902Z,102876.80
2023-02-17T07:13:05.973Z,102878.94
2023-02-17T07:15:32.999Z,102879.85
2023-02-17T07:18:02.197Z,102882.01
2023-02-17T07:20:29.344Z,102884.08
2023-02-17T07:22:56.490Z,102885.86
2023-02-17T07:25:23.449Z,102891.02
2023-02-17T07:27:50.692Z,102891.02
2023-02-17T07:30:18.610Z,102891.34
2023-02-17T07:32:45.606Z,102893.61
2023-02-17T07:35:13.438Z,102893.05
2023-02-17T07:37:40.472Z,102891.92
2023-02-17T07:40:08.282Z,102888.00
2023-02-17T07:42:35.227Z,102892.30
2023-02-17T07:45:03.197Z,102892.52
2023-02-17T07:47:30.156Z,102893.13
2023-02-17T07:49:57.181Z,102896.91
2023-02-17T07:52:24.187Z,102902.33
2023-02-17T07:54:51.175Z,102906.21
2023-02-17T07:57:18.123Z,102909.52
2023-02-17T07:59:47.324Z,102912.14
2023-02-17T08:02:14.498Z,102915.58
2023-02-17T08:04:43.150Z,102917.35
2023-02-17T08:07:10.307Z,102921.68
2023-02-17T08:09:56.617Z,102918.76
2023-02-17T08:12:42.693Z,102918.59
2023-02-17T08:15:11.286Z,102921.88
2023-02-17T08:17:38.334Z,102925.12
2023-02-17T08:20:09.159Z,102922.77
2023-02-17T08:22:37.185Z,102922.69
2023-02-17T08:25:06.442Z,102926.02
2023-02-17T08:27:33.691Z,102925.84
2023-02-17T08:30:00.866Z,102929.76
2023-02-17T08:32:28.378Z,102927.61
2023-02-17T08:34:57.093Z,102930.27
2023-02-17T08:37:24.606Z,102932.98
2023-02-17T08:39:51.661Z,102934.55
2023-02-17T08:42:19.921Z,102938.08
2023-02-17T08:44:47.013Z,102937.97
2023-02-17T08:47:14.258Z,102939.00
2023-02-17T08:49:41.320Z,102944.96
2023-02-17T08:52:08.465Z,102944.73
2023-02-17T08:54:35.916Z,102945.44
2023-02-17T08:57:03.005Z,102947.66
2023-02-17T08:59:30.212Z,102948.55
2023-02-17T09:01:57.813Z,102955.50
2023-02-17T09:04:25.477Z,102955.23
2023-02-17T09:06:56.823Z,102956.17
2023-02-17T09:09:27.116Z,102955.38
2023-02-17T09:11:56.217Z,102951.06
2023-02-17T09:14:26.080Z,102956.48
2023-02-17T09:16:54.817Z,102955.99
2023-02-17T09:19:22.831Z,102953.08
2023-02-17T09:21:49.832Z,102954.30
2023-02-17T09:24:18.343Z,102958.81
2023-02-17T09:26:45.413Z,102961.21
2023-02-17T09:29:12.527Z,102961.24
2023-02-17T09:31:40.082Z,102961.54
2023-02-17T09:34:07.486Z,102964.54
2023-02-17T09:36:40.143Z,102969.12
2023-02-17T09:39:08.171Z,102967.83
2023-02-17T09:41:41.734Z,102972.98
2023-02-17T09:44:20.759Z,102967.59
2023-02-17T09:47:03.268Z,102966.69
2023-02-17T09:49:39.074Z,102964.00
2023-02-17T09:52:15.434Z,102961.73
2023-02-17T09:55:05.597Z,102962.92
2023-02-17T09:57:46.483Z,102962.96
2023-02-17T10:00:18.496Z,102959.65
2023-02-17T10:02:57.782Z,102962.87
2023-02-17T10:05:30.315Z,102962.07
2023-02-17T10:08:06.333Z,102969.36
2023-02-17T10:10:45.279Z,102970.80
2023-02-17T10:13:18.095Z,102969.25
2023-02-17T10:15:49.721Z,102973.55
2023-02-17T10:18:25.469Z,102971.92
2023-02-17T10:20:58.541Z,102969.41
2023-02-17T10:23:28.093Z,102970.17
2023-02-17T10:26:07.659Z,102963.27
2023-02-17T10:28:37.691Z,102958.31
2023-02-17T10:31:12.658Z,102958.27
2023-02-17T10:33:57.961Z,102952.50
2023-02-17T10:36:34.248Z,102953.65
2023-02-17T10:39:06.214Z,102954.58
2023-02-17T10:41:36.343Z,102957.05
2023-02-17T10:44:09.191Z,102956.71
2023-02-17T10:46:36.213Z,102955.98
2023-02-17T10:49:05.122Z,102952.98
2023-02-17T10:51:33.177Z,102957.08
2023-02-17T10:54:06.678Z,102954.41
2023-02-17T10:56:44.474Z,102952.18
2023-02-17T10:59:35.707Z,102949.05
2023-02-17T11:02:20.756Z,102948.29
2023-02-17T11:04:55.114Z,102945.40
2023-02-17T11:07:42.065Z,102943.08
2023-02-17T11:10:29.615Z,102937.55
2023-02-17T11:12:58.862Z,102934.52
2023-02-17T11:15:43.273Z,102931.83
2023-02-17T11:18:19.230Z,102928.51
2023-02-17T11:20:46.730Z,102924.29
2023-02-17T11:23:16.846Z,102929.73
2023-02-17T11:25:54.575Z,102924.95
2023-02-17T11:28:26.138Z,102922.36
2023-02-17T11:30:59.400Z,102922.11
2023-02-17T11:33:40.613Z,102919.86
2023-02-17T11:36:13.762Z,102916.55
2023-02-17T11:38:40.569Z,102906.55
2023-02-17T11:41:08.652Z,102906.85
2023-02-17T11:43:36.655Z,102900.48
2023-02-17T11:46:15.563Z,102892.61
2023-02-17T11:48:54.517Z,102890.91
2023-02-17T11:51:30.193Z,102892.39
2023-02-17T11:54:26.535Z,102893.16
2023-02-17T11:57:04.700Z,102891.21
2023-02-17T11:59:36.567Z,102889.82
2023-02-17T12:02:06.453Z,102886.65
2023-02-17T12:04:38.805Z,102886.73
2023-02-17T12:07:23.249Z,102880.23
2023-02-17T12:09:57.589Z,102874.48
2023-02-17T12:12:37.233Z,102871.27
2023-02-17T12:15:22.598Z,102865.63
2023-02-17T12:18:05.059Z,102862.98
2023-02-17T12:20:42.037Z,102862.01
2023-02-17T12:23:17.708Z,102859.23
2023-02-17T12:25:59.246Z,102855.54
2023-02-17T12:28:34.932Z,102849.02
2023-02-17T12:31:20.886Z,102838.52
2023-02-17T12:34:05.547Z,102835.44
2023-02-17T12:36:36.717Z,102830.98
2023-02-17T12:39:11.837Z,102824.03
2023-02-17T12:41:49.324Z,102820.66
2023-02-17T12:44:21.505Z,102821.14
2023-02-17T12:46:53.581Z,102814.31
2023-02-17T12:49:44.095Z,102813.05
2023-02-17T12:52:18.340Z,102809.52
2023-02-17T12:54:51.350Z,102810.86
2023-02-17T12:57:47.436Z,102812.86
2023-02-17T13:00:20.417Z,102808.80
2023-02-17T13:02:48.297Z,102800.88
2023-02-17T13:05:29.410Z,102802.45
2023-02-17T13:08:10.246Z,102789.30
2023-02-17T13:10:40.008Z,102788.31
2023-02-17T13:13:11.767Z,102790.30
2023-02-17T13:15:43.100Z,102785.65
2023-02-17T13:18:28.481Z,102783.00
2023-02-17T13:21:00.378Z,102782.96
2023-02-17T13:23:37.059Z,102777.84
2023-02-17T13:26:24.022Z,102780.48
2023-02-17T13:28:53.463Z,102775.11
2023-02-17T13:31:23.747Z,102770.33
2023-02-17T13:33:56.583Z,102771.39
2023-02-17T13:36:29.270Z,102767.21
2023-02-17T13:39:05.481Z,102769.76
2023-02-17T13:41:46.638Z,102766.30
2023-02-17T13:44:19.674Z,102771.50
2023-02-17T13:46:47.338Z,102770.80
2023-02-17T13:49:24.373Z,102773.98
2023-02-17T13:51:51.615Z,102776.90
2023-02-17T13:54:22.905Z,102777.36
2023-02-17T13:56:54.404Z,102776.02
2023-02-17T13:59:26.916Z,102777.58
2023-02-17T14:01:57.946Z,102777.24
2023-02-17T14:04:30.926Z,102781.96
2023-02-17T14:07:00.164Z,102782.02
2023-02-17T14:09:33.621Z,102784.05
2023-02-17T14:12:06.953Z,102783.69
2023-02-17T14:14:37.420Z,102782.36
2023-02-17T14:17:15.714Z,102779.91
2023-02-17T14:19:48.217Z,102779.66
2023-02-17T14:22:31.213Z,102776.73
2023-02-17T14:25:04.667Z,102772.85
2023-02-17T14:27:51.480Z,102768.44
2023-02-17T14:30:30.917Z,102761.47
2023-02-17T14:33:06.050Z,102760.55
2023-02-17T14:35:35.257Z,102764.73
2023-02-17T14:38:32.275Z,102757.98
2023-02-17T14:41:01.336Z,102757.79
2023-02-17T14:43:28.832Z,102759.77
2023-02-17T14:45:56.503Z,102756.98
2023-02-17T14:48:27.938Z,102755.64
2023-02-17T14:50:57.585Z,102759.03
2023-02-17T14:53:30.829Z,102761.11
2023-02-17T14:56:04.787Z,102761.14
2023-02-17T14:58:32.934Z,102763.44
2023-02-17T15:01:02.745Z,102762.90
2023-02-17T15:03:29.930Z,102764.08
2023-02-17T15:05:57.062Z,102765.34
2023-02-17T15:08:34.455Z,102765.38
2023-02-17T15:11:02.713Z,102767.60
2023-02-17T15:13:31.849Z,102768.13
2023-02-17T15:15:59.527Z,102768.00
2023-02-17T15:18:28.078Z,102770.55
2023-02-17T15:20:55.625Z,102777.08
2023-02-17T15:23:26.656Z,102778.30
2023-02-17T15:25:56.261Z,102780.69
2023-02-17T15:28:23.828Z,102786.17
2023-02-17T15:30:54.552Z,102788.80
2023-02-17T15:33:24.337Z,102789.39
2023-02-17T15:35:55.004Z,102787.61
2023-02-17T15:38:23.387Z,102787.63
2023-02-17T15:40:51.029Z,102785.91
2023-02-17T15:43:22.082Z,102787.16
2023-02-17T15:45:49.755Z,102790.90
2023-02-17T15:48:24.568Z,102787.75
2023-02-17T15:50:53.496Z,102782.77
2023-02-17T15:53:20.582Z,102785.65
2023-02-17T15:55:48.775Z,102783.92
2023-02-17T15:58:22.091Z,102781.98
2023-02-17T16:00:50.559Z,102780.27
2023-02-17T16:03:18.071Z,102780.64
2023-02-17T16:05:45.074Z,102778.69
2023-02-17T16:08:12.411Z,102781.16
2023-02-17T16:10:42.636Z,102776.08
2023-02-17T16:13:14.767Z,102774.99
2023-02-17T16:15:42.745Z,102773.64
2023-02-17T16:18:28.048Z,102773.29
2023-02-17T16:20:54.990Z,102775.84
2023-02-17T16:23:22.044Z,102771.17
2023-02-17T16:25:50.629Z,102770.53
2023-02-17T16:28:21.255Z,102772.31
2023-02-17T16:30:49.856Z,102781.73
2023-02-17T16:33:17.565Z,102780.60
2023-02-17T16:35:45.062Z,102780.23
2023-02-17T16:38:22.980Z,102778.04
2023-02-17T16:40:53.703Z,102780.77
2023-02-17T16:43:24.081Z,102778.45
2023-02-17T16:46:00.455Z,102778.84
2023-02-17T16:48:32.569Z,102780.64
2023-02-17T16:51:00.015Z,102781.13
2023-02-17T16:53:27.161Z,102786.80
2023-02-17T16:55:55.486Z,102788.97
2023-02-17T16:58:25.363Z,102794.00
2023-02-17T17:00:54.984Z,102797.92
2023-02-17T17:03:25.257Z,102802.48
2023-02-17T17:05:53.257Z,102802.00
2023-02-17T17:08:24.653Z,102808.85
2023-02-17T17:10:53.035Z,102812.19
2023-02-17T17:13:22.111Z,102812.22
2023-02-17T17:15:49.317Z,102813.56
2023-02-17T17:18:22.469Z,102814.09
2023-02-17T17:20:50.898Z,102815.22
2023-02-17T17:23:18.986Z,102815.34
2023-02-17T17:25:47.200Z,102815.10
2023-02-17T17:28:19.512Z,102813.36
2023-02-17T17:30:47.504Z,102818.92
2023-02-17T17:33:15.302Z,102823.19
2023-02-17T17:35:42.387Z,102822.83
2023-02-17T17:38:14.573Z,102821.40
2023-02-17T17:40:52.054Z,102822.26
2023-02-17T17:43:21.587Z,102824.73
2023-02-17T17:45:50.407Z,102826.55
2023-02-17T17:48:18.505Z,102830.74
2023-02-17T17:50:49.775Z,102830.87
2023-02-17T17:53:16.840Z,102831.34
2023-02-17T17:55:43.765Z,102829.45
2023-02-17T17:58:10.708Z,102826.23
2023-02-17T18:00:37.644Z,102828.09
2023-02-17T18:03:05.412Z,102829.88
2023-02-17T18:05:32.465Z,102827.81
2023-02-17T18:08:00.716Z,102832.19
2023-02-17T18:10:27.662Z,102831.53
2023-02-17T18:12:54.613Z,102834.63
2023-02-17T18:15:22.006Z,102832.77
2023-02-17T18:17:49.561Z,102833.54
2023-02-17T18:20:16.707Z,102833.84
2023-02-17T18:22:44.151Z,102832.81
2023-02-17T18:25:11.283Z,102832.52
2023-02-17T18:27:40.768Z,102833.48
2023-02-17T18:30:09.394Z,102835.13
2023-02-17T18:32:36.553Z,102835.13
2023-02-17T18:35:05.044Z,102838.54
2023-02-17T18:37:33.044Z,102838.03
2023-02-17T18:40:01.562Z,102840.14
2023-02-17T18:42:28.572Z,102840.27
2023-02-17T18:44:56.805Z,102844.31
2023-02-17T18:47:26.162Z,102841.96
2023-02-17T18:49:53.117Z,102840.66
2023-02-17T18:52:20.158Z,102839.64
2023-02-17T18:54:47.483Z,102838.75
2023-02-17T18:57:15.446Z,102840.45
2023-02-17T18:59:43.527Z,102838.18
2023-02-17T19:02:12.246Z,102836.46
2023-02-17T19:04:39.464Z,102838.05
2023-02-17T19:07:08.888Z,102837.66
2023-02-17T19:09:39.088Z,102842.42
2023-02-17T19:12:14.286Z,102841.09
2023-02-17T19:14:42.775Z,102841.67
2023-02-17T19:17:12.688Z,102838.63
2023-02-17T19:19:42.513Z,102840.88
2023-02-17T19:22:22.863Z,102838.64
2023-02-17T19:24:54.775Z,102840.75
2023-02-17T19:27:25.005Z,102846.23
2023-02-17T19:30:00.566Z,102845.95
2023-02-17T19:32:28.329Z,102847.08
2023-02-17T19:34:55.777Z,102849.02
2023-02-17T19:37:22.704Z,102850.89
2023-02-17T19:39:49.964Z,102849.88
2023-02-17T19:42:17.141Z,102854.02
2023-02-17T19:44:44.174Z,102854.03
2023-02-17T19:47:11.247Z,102854.95
2023-02-17T19:49:38.342Z,102856.82
2023-02-17T19:52:06.725Z,102857.45
2023-02-17T19:54:33.706Z,102859.46
2023-02-17T19:57:00.786Z,102861.23
2023-02-17T19:59:27.910Z,102865.21
2023-02-17T20:01:54.847Z,102868.05
2023-02-17T20:04:21.838Z,102869.31
2023-02-17T20:06:49.013Z,102869.27
2023-02-17T20:09:20.294Z,102872.06
2023-02-17T20:11:48.883Z,102875.73
2023-02-17T20:14:16.064Z,102871.50
2023-02-17T20:16:43.011Z,102875.08
2023-02-17T20:19:10.024Z,102879.50
2023-02-17T20:21:38.682Z,102880.40
2023-02-17T20:24:06.108Z,102880.42
2023-02-17T20:26:38.338Z,102881.13
2023-02-17T20:29:05.655Z,102883.48
2023-02-17T20:31:34.810Z,102886.07
2023-02-17T20:34:05.149Z,102888.64
2023-02-17T20:36:33.250Z,102885.16
2023-02-17T20:39:01.774Z,102889.89
2023-02-17T20:41:29.320Z,102891.48
2023-02-17T20:43:56.261Z,102888.94
2023-02-17T20:46:28.609Z,102895.64
2023-02-17T20:48:56.286Z,102893.45
2023-02-17T20:51:23.703Z,102889.60
2023-02-17T20:53:51.115Z,102888.34
2023-02-17T20:56:21.904Z,102883.79
2023-02-17T20:58:49.363Z,102879.77
2023-02-17T21:01:16.729Z,102883.54
2023-02-17T21:03:43.691Z,102884.67
2023-02-17T21:06:22.463Z,102888.08
2023-02-17T21:09:01.026Z,102890.98
2023-02-17T21:11:29.092Z,102893.13
2023-02-17T21:13:56.318Z,102895.15
2023-02-17T21:16:27.671Z,102894.84
2023-02-17T21:18:54.573Z,102895.84
2023-02-17T21:21:21.546Z,102891.73
2023-02-17T21:23:48.596Z,102889.46
2023-02-17T21:26:16.712Z,102891.05
2023-02-17T21:28:44.601Z,102892.63
2023-02-17T21:31:12.390Z,102894.67
2023-02-17T21:33:42.246Z,102893.41
2023-02-17T21:36:11.443Z,102893.17
2023-02-17T21:38:38.991Z,102896.13
2023-02-17T21:41:08.651Z,102894.72
2023-02-17T21:43:54.276Z,102899.02
2023-02-17T21:46:22.489Z,102899.02
2023-02-17T21:48:51.625Z,102895.72
2023-02-17T21:51:19.812Z,102899.55
2023-02-17T21:53:47.737Z,102897.79
2023-02-17T21:56:15.164Z,102900.48
2023-02-17T21:58:52.936Z,102903.41
2023-02-17T22:01:21.207Z,102905.48
2023-02-17T22:03:48.273Z,102907.42
2023-02-17T22:06:19.741Z,102906.86
2023-02-17T22:08:47.359Z,102910.19
2023-02-17T22:11:20.056Z,102909.73
2023-02-17T22:13:47.665Z,102908.85
2023-02-17T22:16:15.550Z,102912.38
2023-02-17T22:18:42.405Z,102909.13
2023-02-17T22:21:12.262Z,102910.00
2023-02-17T22:23:40.845Z,102914.94
2023-02-17T22:26:15.363Z,102912.05
2023-02-17T22:28:42.530Z,102911.67
2023-02-17T22:31:13.092Z,102907.29
2023-02-17T22:33:40.504Z,102910.13
2023-02-17T22:36:10.553Z,102905.80
2023-02-17T22:38:37.574Z,102905.17
2023-02-17T22:41:07.487Z,102905.36
2023-02-17T22:43:40.365Z,102907.27
2023-02-17T22:46:09.472Z,102907.97
2023-02-17T22:48:37.946Z,102907.73
2023-02-17T22:51:06.486Z,102909.98
2023-02-17T22:53:34.384Z,102909.42
2023-02-17T22:56:01.639Z,102909.80
2023-02-17T22:58:29.170Z,102909.15
2023-02-17T23:01:06.527Z,102909.11
2023-02-17T23:03:34.053Z,102911.14
2023-02-17T23:06:23.315Z,102911.21
2023-02-17T23:08:50.386Z,102911.45
2023-02-17T23:11:40.959Z,102913.39
2023-02-17T23:14:08.449Z,102910.20
2023-02-17T23:16:35.477Z,102909.09
2023-02-17T23:19:06.458Z,102907.31
2023-02-17T23:21:33.390Z,102903.91
2023-02-17T23:24:00.241Z,102903.47
2023-02-17T23:26:27.195Z,102903.06
2023-02-17T23:28:54.066Z,102900.31
2023-02-17T23:31:21.176Z,102897.52
2023-02-17T23:33:48.634Z,102893.27
2023-02-17T23:36:16.159Z,102892.26
2023-02-17T23:38:43.431Z,102894.09
2023-02-17T23:41:10.849Z,102890.98
2023-02-17T23:43:37.742Z,102892.46
2023-02-17T23:46:06.703Z,102892.17
2023-02-17T23:48:34.043Z,102890.61
2023-02-17T23:51:05.987Z,102884.63
2023-02-17T23:53:34.701Z,102884.38
2023-02-17T23:56:04.980Z,102881.41
2023-02-17T23:58:33.411Z,102878.89
